Terminal Aerodrome Forecast
Issued by NWS Billings, MT

Home | Current Version | Previous Version | Text Only | Print | Product List | Glossary Off
Versions: 1 2 3 4 5 6 7 8 9 10 11 12 13 14 15 16 17 18 19 20 21 22 23 24 25 26 27 28 29 30 31 32 33 34

675
FTUS45 KBYZ 220207 AAA
TAFMLS
TAF AMD
KMLS 220207Z 2202/2224 01011KT 6SM HZ SCT035
      TEMPO 2202/2206 4SM HZ BKN035
     FM220600 34007KT P6SM SKC
     FM221500 34012KT P6SM SKC
     FM221800 30012KT P6SM SKC=

USA.gov is the U.S. government's official web portal to all federal, state and local government web resources and services.